createdAt,value
2023-03-11T00:02:08.655Z,10.97
2023-03-11T00:05:33.673Z,10.92
2023-03-11T00:08:36.221Z,10.90
2023-03-11T00:11:38.848Z,10.88
2023-03-11T00:14:41.116Z,10.81
2023-03-11T00:17:43.895Z,10.82
2023-03-11T00:20:47.338Z,10.80
2023-03-11T00:23:50.031Z,10.81
2023-03-11T00:26:52.368Z,10.80
2023-03-11T00:29:54.963Z,10.76
2023-03-11T00:32:58.475Z,10.75
2023-03-11T00:36:01.161Z,10.81
2023-03-11T00:39:08.202Z,10.80
2023-03-11T00:42:12.205Z,10.82
2023-03-11T00:45:15.186Z,10.85
2023-03-11T00:48:17.912Z,10.81
2023-03-11T00:51:22.518Z,10.81
2023-03-11T00:54:25.295Z,10.83
2023-03-11T00:57:29.232Z,10.73
2023-03-11T01:00:31.996Z,10.84
2023-03-11T01:03:34.706Z,10.83
2023-03-11T01:06:45.126Z,10.78
2023-03-11T01:09:48.148Z,10.76
2023-03-11T01:12:50.795Z,10.69
2023-03-11T01:15:53.644Z,10.68
2023-03-11T01:18:56.783Z,10.63
2023-03-11T01:21:59.183Z,10.60
2023-03-11T01:25:02.613Z,10.56
2023-03-11T01:28:08.367Z,10.43
2023-03-11T01:31:11.305Z,10.35
2023-03-11T01:34:13.988Z,10.47
2023-03-11T01:37:17.012Z,10.37
2023-03-11T01:40:25.890Z,10.26
2023-03-11T01:43:55.130Z,10.23
2023-03-11T01:47:00.142Z,10.32
2023-03-11T01:50:06.997Z,10.28
2023-03-11T01:53:11.037Z,10.25
2023-03-11T01:56:15.576Z,10.27
2023-03-11T01:59:22.793Z,10.23
2023-03-11T02:02:40.318Z,10.10
2023-03-11T02:05:43.556Z,10.19
2023-03-11T02:08:46.382Z,10.19
2023-03-11T02:11:51.176Z,10.17
2023-03-11T02:14:56.765Z,10.05
2023-03-11T02:18:03.200Z,10.21
2023-03-11T02:21:09.835Z,10.22
2023-03-11T02:24:30.448Z,10.22
2023-03-11T02:27:36.679Z,10.22
2023-03-11T02:30:44.052Z,10.21
2023-03-11T02:33:49.372Z,10.20
2023-03-11T02:36:52.366Z,10.14
2023-03-11T02:40:23.917Z,10.05
2023-03-11T02:43:30.960Z,10.18
2023-03-11T02:46:33.430Z,10.06
2023-03-11T02:49:36.980Z,10.17
2023-03-11T02:52:39.591Z,10.19
2023-03-11T02:55:42.248Z,10.20
2023-03-11T02:58:44.724Z,10.16
2023-03-11T03:01:47.528Z,10.17
2023-03-11T03:04:50.351Z,10.17
2023-03-11T03:07:53.199Z,10.12
2023-03-11T03:10:55.549Z,10.14
2023-03-11T03:13:59.247Z,10.19
2023-03-11T03:17:01.941Z,10.11
2023-03-11T03:20:08.903Z,10.21
2023-03-11T03:23:11.483Z,10.18
2023-03-11T03:26:14.469Z,10.09
2023-03-11T03:29:17.189Z,10.21
2023-03-11T03:32:20.233Z,10.18
2023-03-11T03:35:22.659Z,10.19
2023-03-11T03:38:26.631Z,10.18
2023-03-11T03:41:29.221Z,10.15
2023-03-11T03:44:32.051Z,10.01
2023-03-11T03:47:35.736Z,10.00
2023-03-11T03:50:40.539Z,10.05
2023-03-11T03:53:43.320Z,9.94
2023-03-11T03:56:46.247Z,9.95
2023-03-11T03:59:49.099Z,9.87
2023-03-11T04:02:51.921Z,9.76
2023-03-11T04:05:55.136Z,9.83
2023-03-11T04:08:57.539Z,9.78
2023-03-11T04:12:01.474Z,9.65
2023-03-11T04:15:04.262Z,9.67
2023-03-11T04:18:06.987Z,9.55
2023-03-11T04:21:09.895Z,9.55
2023-03-11T04:24:12.957Z,9.38
2023-03-11T04:27:15.436Z,9.50
2023-03-11T04:30:18.261Z,9.26
2023-03-11T04:33:21.053Z,9.23
2023-03-11T04:36:24.467Z,9.23
2023-03-11T04:39:27.844Z,9.13
2023-03-11T04:42:31.238Z,9.23
2023-03-11T04:45:33.770Z,9.10
2023-03-11T04:48:37.054Z,8.98
2023-03-11T04:51:40.414Z,8.72
2023-03-11T04:54:43.229Z,8.70
2023-03-11T04:57:45.919Z,8.60
2023-03-11T05:00:49.134Z,8.41
2023-03-11T05:03:52.407Z,8.42
2023-03-11T05:06:55.180Z,8.34
2023-03-11T05:09:59.532Z,8.25
2023-03-11T05:13:03.030Z,8.34
2023-03-11T05:16:06.300Z,8.36
2023-03-11T05:19:28.443Z,8.12
2023-03-11T05:22:31.133Z,8.04
2023-03-11T05:25:33.840Z,8.07
2023-03-11T05:28:36.686Z,7.99
2023-03-11T05:31:40.976Z,7.89
2023-03-11T05:34:44.232Z,7.73
2023-03-11T05:37:49.723Z,7.66
2023-03-11T05:40:52.716Z,7.72
2023-03-11T05:43:55.502Z,7.83
2023-03-11T05:46:58.343Z,7.50
2023-03-11T05:50:01.474Z,7.75
2023-03-11T05:53:03.966Z,7.91
2023-03-11T05:56:07.187Z,7.96
2023-03-11T05:59:10.375Z,7.87
2023-03-11T06:02:13.827Z,7.65
2023-03-11T06:05:17.113Z,7.62
2023-03-11T06:08:20.685Z,7.65
2023-03-11T06:11:26.990Z,7.34
2023-03-11T06:14:31.732Z,7.40
2023-03-11T06:17:35.647Z,7.35
2023-03-11T06:20:38.120Z,7.30
2023-03-11T06:23:40.831Z,7.21
2023-03-11T06:26:44.071Z,7.38
2023-03-11T06:29:52.358Z,7.08
2023-03-11T06:32:55.313Z,6.97
2023-03-11T06:36:02.967Z,7.16
2023-03-11T06:39:05.702Z,7.18
2023-03-11T06:42:11.302Z,7.08
2023-03-11T06:45:13.969Z,6.99
2023-03-11T06:48:16.997Z,7.16
2023-03-11T06:51:21.288Z,7.19
2023-03-11T06:54:24.209Z,7.07
2023-03-11T06:57:27.774Z,7.23
2023-03-11T07:00:31.719Z,7.01
2023-03-11T07:03:34.603Z,7.34
2023-03-11T07:06:37.519Z,6.81
2023-03-11T07:09:40.888Z,6.74
2023-03-11T07:12:44.584Z,6.78
2023-03-11T07:15:47.213Z,6.58
2023-03-11T07:18:51.635Z,6.78
2023-03-11T07:21:54.023Z,6.88
2023-03-11T07:24:56.648Z,6.96
2023-03-11T07:27:59.027Z,6.77
2023-03-11T07:31:10.467Z,6.80
2023-03-11T07:34:13.036Z,6.80
2023-03-11T07:37:15.670Z,6.87
2023-03-11T07:40:18.666Z,7.01
2023-03-11T07:43:21.376Z,7.00
2023-03-11T07:46:25.361Z,6.88
2023-03-11T07:49:28.139Z,7.15
2023-03-11T07:52:32.169Z,7.28
2023-03-11T07:55:34.836Z,7.31
2023-03-11T07:58:38.058Z,7.23
2023-03-11T08:01:41.479Z,7.29
2023-03-11T08:04:44.312Z,7.43
2023-03-11T08:07:47.150Z,7.51
2023-03-11T08:10:49.879Z,7.51
2023-03-11T08:13:53.686Z,7.41
2023-03-11T08:16:56.378Z,7.36
2023-03-11T08:19:58.943Z,7.42
2023-03-11T08:23:02.005Z,7.33
2023-03-11T08:26:08.956Z,7.64
2023-03-11T08:29:11.713Z,7.93
2023-03-11T08:32:14.185Z,7.90
2023-03-11T08:35:18.308Z,7.80
2023-03-11T08:38:20.791Z,7.35
2023-03-11T08:41:23.494Z,7.39
2023-03-11T08:44:25.806Z,7.84
2023-03-11T08:47:28.505Z,7.90
2023-03-11T08:50:31.513Z,8.09
2023-03-11T08:53:35.022Z,8.12
2023-03-11T08:56:37.473Z,7.98
2023-03-11T08:59:40.145Z,8.04
2023-03-11T09:02:43.452Z,8.24
2023-03-11T09:05:46.112Z,8.35
2023-03-11T09:08:49.483Z,7.96
2023-03-11T09:11:52.123Z,7.99
2023-03-11T09:14:56.189Z,7.85
2023-03-11T09:17:59.791Z,7.70
2023-03-11T09:21:02.137Z,7.53
2023-03-11T09:24:05.960Z,7.79
2023-03-11T09:27:08.693Z,7.71
2023-03-11T09:30:11.784Z,7.80
2023-03-11T09:33:14.268Z,7.81
2023-03-11T09:36:19.616Z,7.67
2023-03-11T09:39:22.074Z,7.69
2023-03-11T09:42:40.036Z,7.59
2023-03-11T09:45:54.312Z,7.45
2023-03-11T09:49:20.022Z,7.61
2023-03-11T09:52:56.689Z,7.58
2023-03-11T09:56:01.114Z,7.66
2023-03-11T09:59:13.150Z,7.66
2023-03-11T10:02:19.617Z,7.35
2023-03-11T10:05:26.604Z,7.10
2023-03-11T10:08:53.508Z,7.11
2023-03-11T10:11:56.164Z,7.32
2023-03-11T10:15:26.515Z,7.08
2023-03-11T10:19:03.494Z,6.99
2023-03-11T10:22:14.493Z,6.90
2023-03-11T10:25:22.755Z,6.99
2023-03-11T10:28:33.715Z,6.92
2023-03-11T10:31:46.723Z,6.73
2023-03-11T10:35:06.707Z,6.69
2023-03-11T10:38:20.731Z,6.67
2023-03-11T10:41:39.171Z,6.81
2023-03-11T10:44:42.989Z,7.05
2023-03-11T10:47:45.378Z,7.62
2023-03-11T10:51:18.130Z,7.91
2023-03-11T10:54:31.410Z,8.00
2023-03-11T10:57:36.912Z,7.45
2023-03-11T11:00:39.292Z,7.95
2023-03-11T11:03:44.598Z,8.28
2023-03-11T11:06:46.937Z,8.52
2023-03-11T11:10:12.441Z,8.61
2023-03-11T11:13:14.700Z,9.05
2023-03-11T11:16:21.960Z,9.08
2023-03-11T11:19:24.471Z,8.77
2023-03-11T11:22:28.644Z,8.76
2023-03-11T11:25:39.194Z,8.37
2023-03-11T11:28:41.944Z,8.31
2023-03-11T11:31:46.081Z,8.22
2023-03-11T11:35:15.828Z,8.03
2023-03-11T11:38:18.680Z,8.07
2023-03-11T11:41:24.355Z,7.96
2023-03-11T11:44:34.096Z,7.95
2023-03-11T11:47:45.253Z,7.51
2023-03-11T11:50:57.840Z,7.65
2023-03-11T11:54:17.435Z,7.51
2023-03-11T11:57:22.691Z,7.60
2023-03-11T12:00:37.015Z,7.69
2023-03-11T12:04:00.438Z,8.07
2023-03-11T12:07:46.008Z,7.78
2023-03-11T12:10:56.887Z,7.89
2023-03-11T12:14:08.303Z,7.57
2023-03-11T12:17:13.910Z,7.47
2023-03-11T12:20:34.571Z,7.86
2023-03-11T12:24:27.880Z,8.40
2023-03-11T12:27:42.714Z,8.93
2023-03-11T12:30:52.388Z,8.96
2023-03-11T12:34:02.412Z,8.53
2023-03-11T12:37:14.718Z,7.84
2023-03-11T12:40:47.807Z,8.14
2023-03-11T12:43:50.448Z,8.42
2023-03-11T12:46:58.965Z,7.59
2023-03-11T12:50:39.414Z,7.59
2023-03-11T12:53:48.294Z,7.54
2023-03-11T12:56:56.465Z,7.75
2023-03-11T13:00:34.163Z,7.70
2023-03-11T13:03:53.850Z,7.86
2023-03-11T13:07:13.393Z,7.56
2023-03-11T13:10:36.075Z,7.83
2023-03-11T13:13:42.120Z,7.51
2023-03-11T13:16:46.442Z,7.54
2023-03-11T13:19:58.754Z,7.59
2023-03-11T13:23:03.553Z,7.65
2023-03-11T13:26:34.544Z,7.70
2023-03-11T13:29:47.773Z,7.72
2023-03-11T13:33:05.316Z,7.62
2023-03-11T13:36:46.953Z,7.52
2023-03-11T13:39:59.679Z,7.70
2023-03-11T13:43:11.895Z,7.77
2023-03-11T13:46:30.544Z,7.66
2023-03-11T13:49:54.573Z,7.43
2023-03-11T13:53:00.584Z,7.50
2023-03-11T13:56:04.176Z,7.58
2023-03-11T13:59:35.700Z,7.81
2023-03-11T14:02:40.387Z,7.74
2023-03-11T14:05:46.444Z,7.71
2023-03-11T14:08:56.295Z,7.83
2023-03-11T14:12:07.993Z,7.77
2023-03-11T14:15:18.940Z,7.63
2023-03-11T14:18:27.807Z,7.42
2023-03-11T14:21:31.771Z,7.41
2023-03-11T14:24:34.785Z,7.32
2023-03-11T14:27:45.354Z,7.12
2023-03-11T14:31:00.292Z,6.98
2023-03-11T14:34:25.418Z,7.03
2023-03-11T14:37:35.133Z,7.12
2023-03-11T14:40:38.153Z,7.06
2023-03-11T14:43:45.980Z,7.00
2023-03-11T14:46:52.150Z,6.69
2023-03-11T14:49:55.629Z,6.83
2023-03-11T14:53:29.218Z,6.92
2023-03-11T14:56:36.398Z,6.87
2023-03-11T14:59:39.798Z,6.77
2023-03-11T15:02:45.417Z,7.17
2023-03-11T15:05:51.524Z,7.13
2023-03-11T15:09:05.675Z,6.84
2023-03-11T15:12:28.368Z,7.19
2023-03-11T15:15:31.307Z,7.39
2023-03-11T15:18:38.315Z,7.23
2023-03-11T15:21:46.500Z,7.08
2023-03-11T15:25:00.114Z,6.91
2023-03-11T15:28:27.500Z,6.90
2023-03-11T15:31:36.158Z,6.91
2023-03-11T15:34:39.075Z,6.82
2023-03-11T15:37:43.226Z,6.94
2023-03-11T15:40:58.666Z,6.95
2023-03-11T15:44:03.130Z,6.80
2023-03-11T15:47:06.117Z,6.87
2023-03-11T15:50:24.028Z,6.83
2023-03-11T15:53:29.804Z,6.70
2023-03-11T15:56:33.331Z,6.80
2023-03-11T15:59:37.478Z,6.69
2023-03-11T16:02:39.964Z,6.66
2023-03-11T16:05:43.082Z,6.59
2023-03-11T16:08:45.495Z,6.54
2023-03-11T16:11:48.333Z,6.65
2023-03-11T16:14:51.054Z,6.58
2023-03-11T16:17:55.901Z,6.54
2023-03-11T16:20:58.382Z,6.45
2023-03-11T16:24:01.680Z,6.38
2023-03-11T16:27:04.204Z,6.29
2023-03-11T16:30:07.813Z,6.13
2023-03-11T16:33:10.204Z,6.15
2023-03-11T16:36:13.084Z,6.06
2023-03-11T16:39:15.649Z,6.05
2023-03-11T16:42:24.214Z,5.99
2023-03-11T16:45:27.288Z,5.98
2023-03-11T16:48:30.007Z,5.93
2023-03-11T16:51:32.896Z,5.79
2023-03-11T16:54:35.766Z,5.70
2023-03-11T16:57:39.430Z,5.85
2023-03-11T17:00:42.873Z,5.83
2023-03-11T17:03:48.701Z,5.86
2023-03-11T17:06:51.505Z,5.76
2023-03-11T17:09:53.941Z,5.69
2023-03-11T17:12:57.245Z,5.75
2023-03-11T17:16:03.226Z,5.75
2023-03-11T17:19:05.979Z,5.70
2023-03-11T17:22:08.358Z,5.82
2023-03-11T17:25:11.140Z,5.83
2023-03-11T17:28:13.428Z,5.65
2023-03-11T17:31:17.127Z,5.65
2023-03-11T17:34:19.623Z,5.54
2023-03-11T17:37:25.140Z,5.55
2023-03-11T17:40:29.397Z,5.44
2023-03-11T17:43:32.082Z,5.40
2023-03-11T17:46:36.349Z,5.39
2023-03-11T17:49:38.997Z,5.28
2023-03-11T17:52:41.523Z,5.38
2023-03-11T17:55:44.211Z,5.29
2023-03-11T17:58:47.755Z,5.24
2023-03-11T18:01:50.513Z,5.34
2023-03-11T18:04:53.948Z,5.28
2023-03-11T18:07:56.351Z,5.10
2023-03-11T18:11:02.132Z,5.28
2023-03-11T18:14:04.613Z,5.23
2023-03-11T18:17:07.485Z,5.20
2023-03-11T18:20:10.592Z,5.36
2023-03-11T18:23:13.447Z,5.26
2023-03-11T18:26:18.429Z,5.14
2023-03-11T18:29:21.230Z,5.20
2023-03-11T18:32:24.735Z,5.10
2023-03-11T18:35:27.559Z,5.23
2023-03-11T18:38:30.168Z,5.02
2023-03-11T18:41:35.153Z,5.04
2023-03-11T18:44:37.602Z,5.12
2023-03-11T18:47:40.682Z,5.30
2023-03-11T18:50:43.104Z,4.93
2023-03-11T18:53:46.001Z,5.10
2023-03-11T18:56:50.347Z,5.17
2023-03-11T18:59:52.997Z,5.09
2023-03-11T19:02:55.475Z,5.00
2023-03-11T19:05:58.670Z,5.12
2023-03-11T19:09:01.044Z,4.79
2023-03-11T19:12:03.845Z,5.13
2023-03-11T19:15:07.034Z,5.15
2023-03-11T19:18:09.775Z,5.16
2023-03-11T19:21:13.960Z,5.00
2023-03-11T19:24:16.620Z,4.89
2023-03-11T19:27:19.038Z,4.94
2023-03-11T19:30:22.189Z,5.10
2023-03-11T19:33:25.698Z,4.80
2023-03-11T19:36:28.503Z,4.96
2023-03-11T19:39:30.930Z,5.15
2023-03-11T19:42:34.325Z,4.94
2023-03-11T19:45:36.649Z,4.79
2023-03-11T19:48:39.831Z,4.74
2023-03-11T19:51:50.180Z,4.57
2023-03-11T19:54:54.017Z,4.67
2023-03-11T19:57:56.461Z,4.69
2023-03-11T20:01:00.053Z,4.61
2023-03-11T20:04:02.770Z,4.43
2023-03-11T20:07:05.416Z,4.47
2023-03-11T20:10:08.845Z,4.37
2023-03-11T20:13:11.941Z,4.27
2023-03-11T20:16:18.889Z,4.23
2023-03-11T20:19:21.645Z,4.14
2023-03-11T20:22:24.369Z,4.03
2023-03-11T20:25:29.803Z,4.15
2023-03-11T20:28:32.599Z,4.01
2023-03-11T20:31:36.491Z,4.05
2023-03-11T20:34:39.395Z,4.08
2023-03-11T20:37:42.832Z,3.94
2023-03-11T20:40:45.692Z,3.87
2023-03-11T20:43:48.204Z,3.88
2023-03-11T20:46:51.156Z,3.74
2023-03-11T20:49:53.706Z,3.76
2023-03-11T20:52:56.420Z,3.73
2023-03-11T20:56:00.771Z,3.76
2023-03-11T20:59:04.758Z,3.71
2023-03-11T21:02:11.762Z,3.45
2023-03-11T21:05:15.040Z,3.73
2023-03-11T21:08:17.619Z,3.54
2023-03-11T21:11:20.574Z,3.54
2023-03-11T21:14:23.022Z,3.51
2023-03-11T21:17:26.239Z,3.38
2023-03-11T21:20:28.783Z,3.27
2023-03-11T21:23:31.602Z,3.36
2023-03-11T21:26:34.424Z,3.40
2023-03-11T21:29:37.710Z,3.45
2023-03-11T21:32:40.490Z,3.54
2023-03-11T21:35:43.277Z,3.55
2023-03-11T21:38:47.406Z,3.36
2023-03-11T21:41:50.697Z,3.49
2023-03-11T21:44:53.331Z,3.41
2023-03-11T21:47:56.234Z,3.38
2023-03-11T21:50:58.698Z,3.41
2023-03-11T21:54:03.690Z,3.39
2023-03-11T21:57:06.194Z,3.39
2023-03-11T22:00:10.251Z,3.23
2023-03-11T22:03:13.298Z,3.32
2023-03-11T22:06:16.106Z,3.42
2023-03-11T22:09:18.912Z,3.41
2023-03-11T22:12:21.520Z,3.43
2023-03-11T22:15:24.948Z,3.49
2023-03-11T22:18:27.333Z,3.47
2023-03-11T22:21:30.244Z,3.50
2023-03-11T22:24:32.965Z,3.62
2023-03-11T22:27:35.686Z,3.53
2023-03-11T22:30:38.101Z,3.47
2023-03-11T22:33:40.794Z,3.33
2023-03-11T22:36:43.292Z,3.38
2023-03-11T22:39:45.911Z,3.42
2023-03-11T22:42:48.212Z,3.23
2023-03-11T22:45:50.888Z,3.33
2023-03-11T22:48:53.274Z,3.29
2023-03-11T22:51:56.033Z,3.28
2023-03-11T22:54:58.401Z,3.15
2023-03-11T22:58:01.110Z,3.10
2023-03-11T23:01:04.402Z,3.25
2023-03-11T23:04:07.231Z,3.15
2023-03-11T23:07:09.546Z,3.09
2023-03-11T23:10:14.607Z,3.15
2023-03-11T23:13:17.169Z,3.06
2023-03-11T23:16:22.748Z,3.13
2023-03-11T23:19:25.073Z,2.95
2023-03-11T23:22:27.885Z,3.27
2023-03-11T23:25:30.454Z,3.23
2023-03-11T23:28:33.150Z,3.07
2023-03-11T23:31:36.441Z,3.16
2023-03-11T23:34:39.192Z,3.10
2023-03-11T23:37:41.527Z,2.96
2023-03-11T23:40:44.268Z,2.96
2023-03-11T23:43:47.477Z,3.02
2023-03-11T23:46:50.076Z,2.94
2023-03-11T23:49:52.433Z,3.03
2023-03-11T23:52:55.099Z,3.04
2023-03-11T23:55:57.445Z,2.95
2023-03-11T23:59:00.154Z,3.04
